Monday June 26, 2017 at 6:30 a.m.

AVIATION AREA FORECAST

SIGNIFICANT FEATURES……… A Trough across Jamaica and the central Caribbean.

TODAY'S FORECAST
This Morning… Mainly sunny and windy.
This Afternoon… Windy with isolated showers and thunderstorms mainly across western parishes.
Tonight… Mainly fair.


CLOUDS GENERALLY ACROSS THE ISLAND:
This Morning… FEW022 FEW024CB SCT038
This Afternoon… SCT020 SCT022CB


WINDS AND TEMPERATURES

Flight 20N 80W 20N 75W
Levels WIND/TEMP WIND/TEMP
450 30002KT/-67 25035KT/-67
390 24008KT/-53 24039KT/-53
340 25004KT/-40 25021KT/-41
300 03002KT/-31 25008KT/-32
240 10002KT/-17 02004KT/-17
180 09004KT/-06 09008KT/-05
100 09006KT/09 12010KT/10
50 09008KT/20 13010KT/19


Flight  15N 80W 15N 75W
Levels WIND/TEMP WIND/TEMP
450 23015KT/-66 26031KT/-68
390 23019KT/-53 25025KT/-52
340 20023KT/-40 24012KT/-40
300 19021KT/-29 19010KT/-30
240 09015KT/-16 10012KT/-16
180 09019KT/-05 10017KT/-05
100 07017KT/10 10017KT/10
50 10021KT/18 11027KT/18




AERODROME  FORECAST
MKJP 261115Z 2612/2712 36005KT 9999 FEW022 FEW024CB SCT040 
  BECMG 2614/2616 14022KT  TEMPO 2620/2623 SCT020 FEW022CB 
  BECMG 2701/2703 11010KT FEW024CB SCT038
MKJS 261115Z 2612/2712 08015KT 9999 FEW022 FEW024CB 
  TEMPO 2620/2623 7000 TSRA SCT018 FEW022CB SCT035 
  BECMG 2701/2703 VRB02KT FEW022 FEW024CB BKN035

pef